sensor_id;sensor_type;location;lat;lon;timestamp;pressure;altitude;pressure_sealevel;temperature;humidity
56006;BME280;41888;44.696;10.522;2023-01-15T00:03:50;100910.41;;;2.53;100.00
56006;BME280;41888;44.696;10.522;2023-01-15T00:06:17;100920.09;;;2.43;100.00
56006;BME280;41888;44.696;10.522;2023-01-15T00:08:44;100905.81;;;2.55;100.00
56006;BME280;41888;44.696;10.522;2023-01-15T00:11:10;100904.63;;;2.86;100.00
56006;BME280;41888;44.696;10.522;2023-01-15T00:13:37;100893.88;;;2.80;100.00
56006;BME280;41888;44.696;10.522;2023-01-15T00:16:09;100891.09;;;2.81;100.00
56006;BME280;41888;44.696;10.522;2023-01-15T00:18:36;100898.03;;;2.73;100.00
56006;BME280;41888;44.696;10.522;2023-01-15T00:21:04;100899.66;;;2.83;100.00
56006;BME280;41888;44.696;10.522;2023-01-15T00:23:31;100897.03;;;2.83;100.00
56006;BME280;41888;44.696;10.522;2023-01-15T00:26:18;100895.38;;;2.82;100.00
56006;BME280;41888;44.696;10.522;2023-01-15T00:29:03;100889.84;;;2.85;100.00
56006;BME280;41888;44.696;10.522;2023-01-15T00:31:53;100888.09;;;3.04;100.00
56006;BME280;41888;44.696;10.522;2023-01-15T00:34:21;100888.09;;;3.04;100.00
56006;BME280;41888;44.696;10.522;2023-01-15T00:36:47;100884.59;;;3.13;100.00
56006;BME280;41888;44.696;10.522;2023-01-15T00:39:13;100884.19;;;3.08;100.00
56006;BME280;41888;44.696;10.522;2023-01-15T00:41:39;100880.47;;;3.10;100.00
56006;BME280;41888;44.696;10.522;2023-01-15T00:44:06;100882.66;;;3.15;100.00
56006;BME280;41888;44.696;10.522;2023-01-15T00:46:32;100873.41;;;3.11;100.00
56006;BME280;41888;44.696;10.522;2023-01-15T00:48:58;100864.38;;;3.13;100.00
56006;BME280;41888;44.696;10.522;2023-01-15T00:51:24;100859.50;;;3.01;100.00
56006;BME280;41888;44.696;10.522;2023-01-15T00:53:51;100855.84;;;3.02;100.00
56006;BME280;41888;44.696;10.522;2023-01-15T00:56:17;100853.78;;;3.05;100.00
56006;BME280;41888;44.696;10.522;2023-01-15T00:58:43;100867.94;;;2.94;100.00
56006;BME280;41888;44.696;10.522;2023-01-15T01:01:11;100863.78;;;2.92;100.00
56006;BME280;41888;44.696;10.522;2023-01-15T01:03:37;100860.63;;;2.88;100.00
56006;BME280;41888;44.696;10.522;2023-01-15T01:06:03;100861.16;;;2.92;100.00
56006;BME280;41888;44.696;10.522;2023-01-15T01:08:30;100860.63;;;2.88;100.00
56006;BME280;41888;44.696;10.522;2023-01-15T01:11:07;100868.38;;;2.90;100.00
56006;BME280;41888;44.696;10.522;2023-01-15T01:13:35;100866.34;;;2.84;100.00
56006;BME280;41888;44.696;10.522;2023-01-15T01:16:02;100871.63;;;2.74;100.00
56006;BME280;41888;44.696;10.522;2023-01-15T01:18:29;100863.75;;;3.02;100.00
56006;BME280;41888;44.696;10.522;2023-01-15T01:20:55;100862.50;;;3.06;100.00
56006;BME280;41888;44.696;10.522;2023-01-15T01:23:22;100864.00;;;3.08;100.00
56006;BME280;41888;44.696;10.522;2023-01-15T01:25:49;100858.78;;;2.98;100.00
56006;BME280;41888;44.696;10.522;2023-01-15T01:28:15;100860.53;;;3.08;100.00
56006;BME280;41888;44.696;10.522;2023-01-15T01:30:41;100855.19;;;3.00;100.00
56006;BME280;41888;44.696;10.522;2023-01-15T01:33:08;100859.63;;;2.99;100.00
56006;BME280;41888;44.696;10.522;2023-01-15T01:35:34;100858.75;;;3.08;100.00
56006;BME280;41888;44.696;10.522;2023-01-15T01:38:00;100848.84;;;2.92;100.00
56006;BME280;41888;44.696;10.522;2023-01-15T01:40:27;100854.69;;;2.86;100.00
56006;BME280;41888;44.696;10.522;2023-01-15T01:42:53;100851.28;;;2.76;100.00
56006;BME280;41888;44.696;10.522;2023-01-15T01:45:27;100849.09;;;2.72;100.00
56006;BME280;41888;44.696;10.522;2023-01-15T01:48:00;100848.16;;;2.63;100.00
56006;BME280;41888;44.696;10.522;2023-01-15T01:50:28;100848.56;;;2.68;100.00
56006;BME280;41888;44.696;10.522;2023-01-15T01:53:04;100847.19;;;2.64;100.00
56006;BME280;41888;44.696;10.522;2023-01-15T01:55:33;100850.38;;;2.58;100.00
56006;BME280;41888;44.696;10.522;2023-01-15T01:58:03;100852.72;;;2.61;100.00
56006;BME280;41888;44.696;10.522;2023-01-15T02:00:31;100853.41;;;2.63;100.00
56006;BME280;41888;44.696;10.522;2023-01-15T02:02:59;100849.22;;;2.70;100.00
56006;BME280;41888;44.696;10.522;2023-01-15T02:05:32;100838.97;;;2.77;100.00
56006;BME280;41888;44.696;10.522;2023-01-15T02:08:00;100841.38;;;2.97;100.00
56006;BME280;41888;44.696;10.522;2023-01-15T02:10:26;100846.19;;;3.02;100.00
56006;BME280;41888;44.696;10.522;2023-01-15T02:15:56;100836.88;;;2.80;100.00
56006;BME280;41888;44.696;10.522;2023-01-15T02:29:09;100819.69;;;2.86;100.00
56006;BME280;41888;44.696;10.522;2023-01-15T02:31:39;100812.19;;;3.01;100.00
56006;BME280;41888;44.696;10.522;2023-01-15T02:34:15;100807.31;;;3.06;100.00
56006;BME280;41888;44.696;10.522;2023-01-15T02:36:47;100811.28;;;3.10;100.00
56006;BME280;41888;44.696;10.522;2023-01-15T02:39:15;100800.25;;;3.24;100.00
56006;BME280;41888;44.696;10.522;2023-01-15T02:41:47;100789.53;;;3.35;100.00
56006;BME280;41888;44.696;10.522;2023-01-15T02:44:18;100792.97;;;3.18;100.00
56006;BME280;41888;44.696;10.522;2023-01-15T02:46:45;100779.09;;;3.25;100.00
56006;BME280;41888;44.696;10.522;2023-01-15T02:49:18;100770.53;;;3.41;100.00
56006;BME280;41888;44.696;10.522;2023-01-15T02:51:56;100769.31;;;3.35;100.00
56006;BME280;41888;44.696;10.522;2023-01-15T02:54:28;100759.31;;;3.39;100.00
56006;BME280;41888;44.696;10.522;2023-01-15T02:56:57;100752.44;;;3.38;100.00
56006;BME280;41888;44.696;10.522;2023-01-15T02:59:32;100752.50;;;3.46;100.00
56006;BME280;41888;44.696;10.522;2023-01-15T03:02:00;100754.38;;;3.36;100.00
56006;BME280;41888;44.696;10.522;2023-01-15T03:04:47;100756.38;;;3.24;100.00
56006;BME280;41888;44.696;10.522;2023-01-15T03:09:45;100744.41;;;3.12;100.00
56006;BME280;41888;44.696;10.522;2023-01-15T03:15:10;100727.00;;;3.29;100.00
56006;BME280;41888;44.696;10.522;2023-01-15T03:17:58;100721.16;;;3.35;100.00
56006;BME280;41888;44.696;10.522;2023-01-15T03:20:28;100724.84;;;3.42;100.00
56006;BME280;41888;44.696;10.522;2023-01-15T03:23:05;100731.66;;;3.35;100.00
56006;BME280;41888;44.696;10.522;2023-01-15T03:25:39;100742.66;;;3.48;100.00
56006;BME280;41888;44.696;10.522;2023-01-15T03:28:08;100737.16;;;3.42;100.00
56006;BME280;41888;44.696;10.522;2023-01-15T03:30:37;100734.16;;;3.36;100.00
56006;BME280;41888;44.696;10.522;2023-01-15T03:33:03;100734.38;;;3.43;100.00
56006;BME280;41888;44.696;10.522;2023-01-15T03:38:15;100748.66;;;3.58;100.00
56006;BME280;41888;44.696;10.522;2023-01-15T03:52:34;100713.91;;;3.72;100.00
56006;BME280;41888;44.696;10.522;2023-01-15T03:54:46;100720.91;;;3.64;100.00
56006;BME280;41888;44.696;10.522;2023-01-15T03:57:20;100716.91;;;3.60;100.00
56006;BME280;41888;44.696;10.522;2023-01-15T03:59:54;100705.69;;;3.75;100.00
56006;BME280;41888;44.696;10.522;2023-01-15T04:02:23;100708.16;;;3.77;100.00
56006;BME280;41888;44.696;10.522;2023-01-15T04:04:51;100701.25;;;3.76;100.00
56006;BME280;41888;44.696;10.522;2023-01-15T04:07:19;100700.13;;;3.78;100.00
56006;BME280;41888;44.696;10.522;2023-01-15T04:09:46;100698.53;;;3.86;100.00
56006;BME280;41888;44.696;10.522;2023-01-15T04:12:13;100696.56;;;3.88;100.00
56006;BME280;41888;44.696;10.522;2023-01-15T04:14:39;100695.59;;;3.89;100.00
56006;BME280;41888;44.696;10.522;2023-01-15T04:17:05;100692.59;;;3.83;100.00
56006;BME280;41888;44.696;10.522;2023-01-15T04:19:32;100676.66;;;3.85;100.00
56006;BME280;41888;44.696;10.522;2023-01-15T04:21:58;100678.00;;;3.89;100.00
56006;BME280;41888;44.696;10.522;2023-01-15T04:24:25;100663.72;;;4.00;100.00
56006;BME280;41888;44.696;10.522;2023-01-15T04:26:51;100653.19;;;4.00;100.00
56006;BME280;41888;44.696;10.522;2023-01-15T04:29:17;100662.94;;;4.07;100.00
56006;BME280;41888;44.696;10.522;2023-01-15T04:31:44;100659.09;;;3.94;100.00
56006;BME280;41888;44.696;10.522;2023-01-15T04:34:10;100672.22;;;3.86;100.00
56006;BME280;41888;44.696;10.522;2023-01-15T04:36:36;100662.19;;;3.89;100.00
56006;BME280;41888;44.696;10.522;2023-01-15T04:39:03;100667.94;;;3.85;100.00
56006;BME280;41888;44.696;10.522;2023-01-15T04:41:29;100665.31;;;3.93;100.00
56006;BME280;41888;44.696;10.522;2023-01-15T04:44:18;100646.91;;;3.93;100.00
56006;BME280;41888;44.696;10.522;2023-01-15T04:46:45;100640.66;;;3.94;100.00
56006;BME280;41888;44.696;10.522;2023-01-15T04:49:15;100650.94;;;4.13;100.00
56006;BME280;41888;44.696;10.522;2023-01-15T04:51:42;100649.63;;;4.09;100.00
56006;BME280;41888;44.696;10.522;2023-01-15T04:54:11;100654.25;;;4.07;100.00
56006;BME280;41888;44.696;10.522;2023-01-15T04:56:43;100638.44;;;4.07;100.00
56006;BME280;41888;44.696;10.522;2023-01-15T04:59:10;100639.56;;;4.04;100.00
56006;BME280;41888;44.696;10.522;2023-01-15T05:01:37;100633.78;;;4.01;100.00
56006;BME280;41888;44.696;10.522;2023-01-15T05:04:03;100637.41;;;4.00;100.00
56006;BME280;41888;44.696;10.522;2023-01-15T05:06:30;100641.34;;;3.96;100.00
56006;BME280;41888;44.696;10.522;2023-01-15T05:08:57;100637.13;;;4.11;100.00
56006;BME280;41888;44.696;10.522;2023-01-15T05:11:24;100647.34;;;4.14;100.00
56006;BME280;41888;44.696;10.522;2023-01-15T05:13:50;100643.38;;;4.10;100.00
56006;BME280;41888;44.696;10.522;2023-01-15T05:16:20;100633.31;;;4.05;100.00
56006;BME280;41888;44.696;10.522;2023-01-15T05:18:46;100618.97;;;4.00;100.00
56006;BME280;41888;44.696;10.522;2023-01-15T05:21:21;100622.31;;;4.10;100.00
56006;BME280;41888;44.696;10.522;2023-01-15T05:23:49;100627.44;;;4.19;100.00
56006;BME280;41888;44.696;10.522;2023-01-15T05:26:16;100623.22;;;4.27;100.00
56006;BME280;41888;44.696;10.522;2023-01-15T05:28:43;100626.81;;;4.25;100.00
56006;BME280;41888;44.696;10.522;2023-01-15T05:31:12;100620.09;;;4.39;100.00
56006;BME280;41888;44.696;10.522;2023-01-15T05:33:40;100624.72;;;4.37;100.00
56006;BME280;41888;44.696;10.522;2023-01-15T05:36:12;100618.78;;;4.35;100.00
56006;BME280;41888;44.696;10.522;2023-01-15T05:38:38;100622.69;;;4.23;100.00
56006;BME280;41888;44.696;10.522;2023-01-15T05:41:06;100623.22;;;4.27;100.00
56006;BME280;41888;44.696;10.522;2023-01-15T05:43:53;100615.44;;;4.17;100.00
56006;BME280;41888;44.696;10.522;2023-01-15T05:46:20;100616.16;;;4.35;100.00
56006;BME280;41888;44.696;10.522;2023-01-15T05:48:46;100617.59;;;4.30;100.00
56006;BME280;41888;44.696;10.522;2023-01-15T05:54:03;100624.69;;;4.29;100.00
56006;BME280;41888;44.696;10.522;2023-01-15T05:56:29;100632.28;;;4.32;100.00
56006;BME280;41888;44.696;10.522;2023-01-15T05:58:56;100628.00;;;4.39;100.00
56006;BME280;41888;44.696;10.522;2023-01-15T06:01:22;100620.63;;;4.43;100.00
56006;BME280;41888;44.696;10.522;2023-01-15T06:03:48;100606.00;;;4.48;100.00
56006;BME280;41888;44.696;10.522;2023-01-15T06:06:16;100597.41;;;4.46;100.00
56006;BME280;41888;44.696;10.522;2023-01-15T06:09:03;100619.13;;;4.40;100.00
56006;BME280;41888;44.696;10.522;2023-01-15T06:11:29;100612.69;;;4.35;100.00
56006;BME280;41888;44.696;10.522;2023-01-15T06:13:55;100602.47;;;4.32;100.00
56006;BME280;41888;44.696;10.522;2023-01-15T06:16:22;100605.75;;;4.34;100.00
56006;BME280;41888;44.696;10.522;2023-01-15T06:18:48;100602.81;;;4.37;100.00
56006;BME280;41888;44.696;10.522;2023-01-15T06:21:15;100591.31;;;4.46;100.00
56006;BME280;41888;44.696;10.522;2023-01-15T06:23:42;100579.94;;;4.45;100.00
56006;BME280;41888;44.696;10.522;2023-01-15T06:26:15;100571.91;;;4.63;100.00
56006;BME280;41888;44.696;10.522;2023-01-15T06:28:42;100565.78;;;4.46;100.00
56006;BME280;41888;44.696;10.522;2023-01-15T06:31:10;100570.75;;;4.65;100.00
56006;BME280;41888;44.696;10.522;2023-01-15T06:33:37;100567.66;;;4.78;100.00
56006;BME280;41888;44.696;10.522;2023-01-15T06:36:05;100558.59;;;4.64;100.00
56006;BME280;41888;44.696;10.522;2023-01-15T06:38:32;100555.75;;;4.50;100.00
56006;BME280;41888;44.696;10.522;2023-01-15T06:41:03;100564.16;;;4.53;100.00
56006;BME280;41888;44.696;10.522;2023-01-15T06:43:50;100561.22;;;4.73;100.00
56006;BME280;41888;44.696;10.522;2023-01-15T06:46:34;100563.84;;;4.73;100.00
56006;BME280;41888;44.696;10.522;2023-01-15T06:49:19;100568.97;;;4.74;100.00
56006;BME280;41888;44.696;10.522;2023-01-15T06:51:45;100559.91;;;4.68;100.00
56006;BME280;41888;44.696;10.522;2023-01-15T06:54:11;100556.63;;;4.75;100.00
56006;BME280;41888;44.696;10.522;2023-01-15T06:56:37;100568.31;;;4.72;100.00
56006;BME280;41888;44.696;10.522;2023-01-15T06:59:03;100580.50;;;4.89;100.00
56006;BME280;41888;44.696;10.522;2023-01-15T07:01:29;100568.16;;;4.74;100.00
56006;BME280;41888;44.696;10.522;2023-01-15T07:03:56;100564.69;;;4.65;100.00
56006;BME280;41888;44.696;10.522;2023-01-15T07:06:22;100580.00;;;4.78;100.00
56006;BME280;41888;44.696;10.522;2023-01-15T07:08:49;100569.78;;;4.66;100.00
56006;BME280;41888;44.696;10.522;2023-01-15T07:11:15;100557.59;;;4.57;100.00
56006;BME280;41888;44.696;10.522;2023-01-15T07:13:42;100558.91;;;4.61;100.00
56006;BME280;41888;44.696;10.522;2023-01-15T07:16:08;100545.06;;;4.67;100.00
56006;BME280;41888;44.696;10.522;2023-01-15T07:18:53;100557.13;;;4.70;100.00
56006;BME280;41888;44.696;10.522;2023-01-15T07:21:20;100538.66;;;4.70;100.00
56006;BME280;41888;44.696;10.522;2023-01-15T07:23:46;100545.06;;;4.67;100.00
56006;BME280;41888;44.696;10.522;2023-01-15T07:26:12;100544.41;;;4.82;100.00
56006;BME280;41888;44.696;10.522;2023-01-15T07:28:38;100544.59;;;5.04;100.00
56006;BME280;41888;44.696;10.522;2023-01-15T07:31:05;100553.31;;;5.05;100.00
56006;BME280;41888;44.696;10.522;2023-01-15T07:33:31;100551.50;;;5.05;100.00
56006;BME280;41888;44.696;10.522;2023-01-15T07:35:57;100549.03;;;4.96;100.00
56006;BME280;41888;44.696;10.522;2023-01-15T07:38:23;100540.47;;;4.86;100.00
56006;BME280;41888;44.696;10.522;2023-01-15T07:40:49;100537.00;;;4.77;100.00
56006;BME280;41888;44.696;10.522;2023-01-15T07:43:35;100539.16;;;5.06;100.00
56006;BME280;41888;44.696;10.522;2023-01-15T07:46:20;100521.34;;;4.84;100.00
56006;BME280;41888;44.696;10.522;2023-01-15T07:49:11;100536.81;;;4.71;100.00
56006;BME280;41888;44.696;10.522;2023-01-15T07:51:56;100533.38;;;4.94;100.00
56006;BME280;41888;44.696;10.522;2023-01-15T07:54:22;100522.03;;;4.86;100.00
56006;BME280;41888;44.696;10.522;2023-01-15T07:56:49;100523.66;;;4.95;100.00
56006;BME280;41888;44.696;10.522;2023-01-15T07:59:16;100524.66;;;5.02;100.00
56006;BME280;41888;44.696;10.522;2023-01-15T08:01:43;100524.34;;;4.97;100.00
56006;BME280;41888;44.696;10.522;2023-01-15T08:04:09;100515.25;;;4.99;100.00
56006;BME280;41888;44.696;10.522;2023-01-15T08:06:36;100522.03;;;5.02;100.00
56006;BME280;41888;44.696;10.522;2023-01-15T08:09:02;100524.31;;;5.05;100.00
56006;BME280;41888;44.696;10.522;2023-01-15T08:11:29;100520.69;;;4.98;100.00
56006;BME280;41888;44.696;10.522;2023-01-15T08:14:14;100540.47;;;5.02;100.00
56006;BME280;41888;44.696;10.522;2023-01-15T08:16:58;100552.50;;;4.96;100.00
56006;BME280;41888;44.696;10.522;2023-01-15T08:19:24;100544.75;;;4.95;100.00
56006;BME280;41888;44.696;10.522;2023-01-15T08:21:51;100541.28;;;5.02;100.00
56006;BME280;41888;44.696;10.522;2023-01-15T08:24:17;100531.75;;;5.01;100.00
56006;BME280;41888;44.696;10.522;2023-01-15T08:26:44;100532.06;;;5.06;100.00
56006;BME280;41888;44.696;10.522;2023-01-15T08:29:10;100545.38;;;5.13;100.00
56006;BME280;41888;44.696;10.522;2023-01-15T08:31:36;100550.63;;;5.29;100.00
56006;BME280;41888;44.696;10.522;2023-01-15T08:34:07;100544.03;;;5.41;100.00
56006;BME280;41888;44.696;10.522;2023-01-15T08:36:33;100530.56;;;5.28;100.00
56006;BME280;41888;44.696;10.522;2023-01-15T08:39:00;100533.66;;;5.24;100.00
56006;BME280;41888;44.696;10.522;2023-01-15T08:41:26;100514.09;;;5.18;100.00
56006;BME280;41888;44.696;10.522;2023-01-15T08:43:52;100515.38;;;5.14;100.00
56006;BME280;41888;44.696;10.522;2023-01-15T08:46:18;100522.31;;;5.15;100.00
56006;BME280;41888;44.696;10.522;2023-01-15T08:48:45;100522.31;;;5.15;100.00
56006;BME280;41888;44.696;10.522;2023-01-15T08:51:12;100512.44;;;5.17;100.00
56006;BME280;41888;44.696;10.522;2023-01-15T08:53:38;100517.38;;;5.20;100.00
56006;BME280;41888;44.696;10.522;2023-01-15T08:56:10;100515.38;;;5.22;100.00
56006;BME280;41888;44.696;10.522;2023-01-15T08:58:37;100514.22;;;5.25;100.00
56006;BME280;41888;44.696;10.522;2023-01-15T09:01:05;100522.59;;;5.36;100.00
56006;BME280;41888;44.696;10.522;2023-01-15T09:03:32;100514.84;;;5.35;100.00
56006;BME280;41888;44.696;10.522;2023-01-15T09:06:01;100499.19;;;5.41;100.00
56006;BME280;41888;44.696;10.522;2023-01-15T09:08:28;100501.66;;;5.43;100.00
56006;BME280;41888;44.696;10.522;2023-01-15T09:11:02;100494.38;;;5.45;100.00
56006;BME280;41888;44.696;10.522;2023-01-15T09:13:29;100486.13;;;5.48;100.00
56006;BME280;41888;44.696;10.522;2023-01-15T09:16:00;100474.06;;;5.53;100.00
56006;BME280;41888;44.696;10.522;2023-01-15T09:18:28;100470.88;;;5.66;100.00
56006;BME280;41888;44.696;10.522;2023-01-15T09:20:54;100472.38;;;5.61;100.00
56006;BME280;41888;44.696;10.522;2023-01-15T09:23:20;100477.66;;;5.61;100.00
56006;BME280;41888;44.696;10.522;2023-01-15T09:26:24;100465.13;;;5.63;100.00
56006;BME280;41888;44.696;10.522;2023-01-15T09:28:51;100466.56;;;5.73;100.00
56006;BME280;41888;44.696;10.522;2023-01-15T09:31:17;100469.81;;;5.91;100.00
56006;BME280;41888;44.696;10.522;2023-01-15T09:33:43;100465.16;;;5.93;100.00
56006;BME280;41888;44.696;10.522;2023-01-15T09:36:38;100461.66;;;6.01;100.00
56006;BME280;41888;44.696;10.522;2023-01-15T09:39:04;100456.09;;;6.19;100.00
56006;BME280;41888;44.696;10.522;2023-01-15T09:47:20;100449.31;;;8.30;100.00
56006;BME280;41888;44.696;10.522;2023-01-15T09:57:54;100451.59;;;8.33;100.00
56006;BME280;41888;44.696;10.522;2023-01-15T10:00:23;100437.84;;;8.08;100.00
56006;BME280;41888;44.696;10.522;2023-01-15T10:05:40;100433.13;;;7.53;100.00
56006;BME280;41888;44.696;10.522;2023-01-15T10:08:41;100422.31;;;7.18;100.00
56006;BME280;41888;44.696;10.522;2023-01-15T10:14:01;100420.03;;;7.01;100.00
56006;BME280;41888;44.696;10.522;2023-01-15T10:16:31;100419.28;;;6.92;100.00
56006;BME280;41888;44.696;10.522;2023-01-15T10:19:01;100404.22;;;6.93;100.00
56006;BME280;41888;44.696;10.522;2023-01-15T10:26:55;100405.41;;;7.49;100.00
56006;BME280;41888;44.696;10.522;2023-01-15T10:46:18;100382.06;;;11.13;100.00
56006;BME280;41888;44.696;10.522;2023-01-15T10:48:52;100379.34;;;12.15;100.00
56006;BME280;41888;44.696;10.522;2023-01-15T10:51:39;100378.59;;;12.58;100.00
56006;BME280;41888;44.696;10.522;2023-01-15T10:56:57;100372.63;;;11.11;100.00
56006;BME280;41888;44.696;10.522;2023-01-15T10:59:47;100353.84;;;10.00;100.00
56006;BME280;41888;44.696;10.522;2023-01-15T11:04:46;100351.38;;;8.77;100.00
56006;BME280;41888;44.696;10.522;2023-01-15T11:07:12;100355.06;;;8.27;100.00
56006;BME280;41888;44.696;10.522;2023-01-15T11:09:40;100343.81;;;8.04;100.00
56006;BME280;41888;44.696;10.522;2023-01-15T11:12:25;100341.25;;;7.89;100.00
56006;BME280;41888;44.696;10.522;2023-01-15T11:14:53;100341.47;;;7.67;100.00
56006;BME280;41888;44.696;10.522;2023-01-15T11:17:40;100352.72;;;7.54;100.00
56006;BME280;41888;44.696;10.522;2023-01-15T11:23:06;100348.13;;;7.27;100.00
56006;BME280;41888;44.696;10.522;2023-01-15T11:25:33;100332.34;;;7.18;100.00
56006;BME280;41888;44.696;10.522;2023-01-15T11:28:02;100322.41;;;7.06;100.00
56006;BME280;41888;44.696;10.522;2023-01-15T11:30:35;100320.69;;;6.98;100.00
56006;BME280;41888;44.696;10.522;2023-01-15T11:33:19;100313.78;;;6.97;100.00
56006;BME280;41888;44.696;10.522;2023-01-15T11:35:55;100313.13;;;6.95;100.00
56006;BME280;41888;44.696;10.522;2023-01-15T11:38:26;100307.00;;;6.95;100.00
56006;BME280;41888;44.696;10.522;2023-01-15T11:40:55;100291.31;;;6.93;100.00
56006;BME280;41888;44.696;10.522;2023-01-15T11:43:23;100291.69;;;6.90;100.00
56006;BME280;41888;44.696;10.522;2023-01-15T11:46:28;100288.88;;;6.92;100.00
56006;BME280;41888;44.696;10.522;2023-01-15T11:49:21;100289.31;;;6.95;100.00
56006;BME280;41888;44.696;10.522;2023-01-15T11:52:12;100271.53;;;6.89;100.00
56006;BME280;41888;44.696;10.522;2023-01-15T11:54:43;100269.72;;;6.90;100.00
56006;BME280;41888;44.696;10.522;2023-01-15T11:57:10;100269.34;;;6.93;100.00
56006;BME280;41888;44.696;10.522;2023-01-15T11:59:37;100268.16;;;6.95;100.00
56006;BME280;41888;44.696;10.522;2023-01-15T12:02:24;100253.13;;;6.96;100.00
56006;BME280;41888;44.696;10.522;2023-01-15T12:04:58;100235.69;;;7.01;100.00
56006;BME280;41888;44.696;10.522;2023-01-15T12:07:25;100241.97;;;7.00;100.00
56006;BME280;41888;44.696;10.522;2023-01-15T12:13:01;100213.25;;;6.97;100.00
56006;BME280;41888;44.696;10.522;2023-01-15T12:15:41;100207.16;;;6.97;100.00
56006;BME280;41888;44.696;10.522;2023-01-15T12:26:37;100200.16;;;7.10;100.00
56006;BME280;41888;44.696;10.522;2023-01-15T12:29:27;100221.16;;;7.12;100.00
56006;BME280;41888;44.696;10.522;2023-01-15T12:32:03;100206.41;;;7.03;100.00
56006;BME280;41888;44.696;10.522;2023-01-15T12:38:15;100192.28;;;6.96;100.00
56006;BME280;41888;44.696;10.522;2023-01-15T12:40:16;100200.22;;;6.96;100.00
56006;BME280;41888;44.696;10.522;2023-01-15T12:42:47;100206.25;;;6.90;100.00
56006;BME280;41888;44.696;10.522;2023-01-15T12:45:37;100191.75;;;6.86;100.00
56006;BME280;41888;44.696;10.522;2023-01-15T12:54:14;100173.59;;;6.83;100.00
56006;BME280;41888;44.696;10.522;2023-01-15T12:56:59;100180.38;;;6.85;100.00
56006;BME280;41888;44.696;10.522;2023-01-15T12:59:56;100178.91;;;6.83;100.00
56006;BME280;41888;44.696;10.522;2023-01-15T13:02:39;100174.06;;;6.86;100.00
56006;BME280;41888;44.696;10.522;2023-01-15T13:05:12;100169.16;;;6.83;100.00
56006;BME280;41888;44.696;10.522;2023-01-15T13:07:51;100154.75;;;6.86;100.00
56006;BME280;41888;44.696;10.522;2023-01-15T13:10:23;100149.28;;;6.87;100.00
56006;BME280;41888;44.696;10.522;2023-01-15T13:12:54;100153.59;;;6.95;100.00
56006;BME280;41888;44.696;10.522;2023-01-15T13:15:28;100152.59;;;6.96;100.00
56006;BME280;41888;44.696;10.522;2023-01-15T13:18:15;100151.59;;;6.97;100.00
56006;BME280;41888;44.696;10.522;2023-01-15T13:20:50;100148.06;;;6.90;100.00
56006;BME280;41888;44.696;10.522;2023-01-15T13:23:40;100146.69;;;6.94;100.00
56006;BME280;41888;44.696;10.522;2023-01-15T13:26:25;100143.22;;;6.93;100.00
56006;BME280;41888;44.696;10.522;2023-01-15T13:29:03;100120.78;;;6.89;100.00
56006;BME280;41888;44.696;10.522;2023-01-15T13:36:50;100100.47;;;7.11;100.00
56006;BME280;41888;44.696;10.522;2023-01-15T13:39:23;100116.25;;;7.04;100.00
56006;BME280;41888;44.696;10.522;2023-01-15T13:41:52;100120.72;;;7.04;100.00
56006;BME280;41888;44.696;10.522;2023-01-15T13:44:46;100110.72;;;6.99;100.00
56006;BME280;41888;44.696;10.522;2023-01-15T13:47:24;100106.19;;;6.93;100.00
56006;BME280;41888;44.696;10.522;2023-01-15T13:50:00;100099.28;;;6.92;100.00
56006;BME280;41888;44.696;10.522;2023-01-15T13:52:34;100098.47;;;6.92;100.00
56006;BME280;41888;44.696;10.522;2023-01-15T13:57:41;100086.31;;;6.76;100.00
56006;BME280;41888;44.696;10.522;2023-01-15T14:00:33;100087.16;;;6.83;100.00
56006;BME280;41888;44.696;10.522;2023-01-15T14:03:25;100079.88;;;6.85;100.00
56006;BME280;41888;44.696;10.522;2023-01-15T14:06:00;100068.63;;;6.76;100.00
56006;BME280;41888;44.696;10.522;2023-01-15T14:08:49;100069.41;;;6.77;100.00
56006;BME280;41888;44.696;10.522;2023-01-15T14:22:42;100057.91;;;6.63;100.00
56006;BME280;41888;44.696;10.522;2023-01-15T14:34:22;100056.81;;;6.58;100.00
56006;BME280;41888;44.696;10.522;2023-01-15T14:39:39;100060.69;;;6.55;100.00
56006;BME280;41888;44.696;10.522;2023-01-15T14:45:33;100079.97;;;6.56;100.00
56006;BME280;41888;44.696;10.522;2023-01-15T14:50:50;100065.72;;;6.50;100.00
56006;BME280;41888;44.696;10.522;2023-01-15T14:59:23;100060.13;;;6.45;100.00
56006;BME280;41888;44.696;10.522;2023-01-15T15:01:53;100053.41;;;6.43;100.00
56006;BME280;41888;44.696;10.522;2023-01-15T15:04:36;100049.13;;;6.42;100.00
56006;BME280;41888;44.696;10.522;2023-01-15T15:07:12;100032.28;;;6.43;100.00
56006;BME280;41888;44.696;10.522;2023-01-15T15:23:23;100032.75;;;6.31;100.00
56006;BME280;41888;44.696;10.522;2023-01-15T15:26:03;100042.94;;;6.34;100.00
56006;BME280;41888;44.696;10.522;2023-01-15T15:28:30;100032.13;;;6.29;100.00
56006;BME280;41888;44.696;10.522;2023-01-15T15:30:57;100044.72;;;6.27;100.00
56006;BME280;41888;44.696;10.522;2023-01-15T15:33:47;100053.06;;;6.31;100.00
56006;BME280;41888;44.696;10.522;2023-01-15T15:36:14;100045.31;;;6.29;100.00
56006;BME280;41888;44.696;10.522;2023-01-15T15:38:40;100049.75;;;6.22;100.00
56006;BME280;41888;44.696;10.522;2023-01-15T15:41:16;100044.47;;;6.22;100.00
56006;BME280;41888;44.696;10.522;2023-01-15T15:44:02;100039.53;;;6.19;100.00
56006;BME280;41888;44.696;10.522;2023-01-15T15:46:49;100050.09;;;6.19;100.00
56006;BME280;41888;44.696;10.522;2023-01-15T15:49:41;100057.03;;;6.20;100.00